Time;durP1;ratioP1;P1;durP2;ratioP2;P2;SDS_P1;SDS_P2;PMS_P1;PMS_P2;Temp;Humidity;BMP_temperature;BMP_pressure;BME280_temperature;BME280_humidity;BME280_pressure;Samples;Min_cycle;Max_cycle;Signal;HPM_P1;HPM_P2
2021/04/02 00:01:08;;;;;;;10.43;2.75;;;11.90;73.60;;;;;;5061699;28;20487;-76
2021/04/02 00:03:38;;;;;;;10.20;2.78;;;11.90;73.80;;;;;;5060800;28;20435;-76
2021/04/02 00:06:06;;;;;;;11.02;2.90;;;11.90;73.80;;;;;;5064120;28;20411;-76
2021/04/02 00:08:32;;;;;;;9.30;2.90;;;11.80;73.90;;;;;;5059974;28;20543;-76
2021/04/02 00:11:01;;;;;;;9.03;3.00;;;11.80;74.10;;;;;;5066069;28;20404;-76
2021/04/02 00:13:30;;;;;;;11.55;3.35;;;11.80;74.20;;;;;;5061838;28;20454;-76
2021/04/02 00:15:57;;;;;;;11.27;3.10;;;11.70;74.30;;;;;;5063841;28;20403;-76
2021/04/02 00:18:25;;;;;;;11.07;3.40;;;11.70;74.60;;;;;;5067649;28;20425;-76
2021/04/02 00:20:52;;;;;;;10.82;3.55;;;11.70;74.70;;;;;;5043454;28;20425;-76
2021/04/02 00:23:19;;;;;;;10.83;3.20;;;11.70;74.80;;;;;;5064279;28;20421;-76
2021/04/02 00:25:45;;;;;;;12.18;3.50;;;11.70;74.90;;;;;;5060884;28;20427;-76
2021/04/02 00:28:12;;;;;;;10.18;3.10;;;11.60;74.90;;;;;;5056645;28;20487;-76
2021/04/02 00:30:40;;;;;;;9.25;2.90;;;11.60;74.90;;;;;;5063286;28;20419;-77
2021/04/02 00:33:07;;;;;;;11.75;3.00;;;11.60;75.00;;;;;;5044365;28;20427;-77
2021/04/02 00:35:34;;;;;;;14.65;3.20;;;11.60;75.10;;;;;;5060084;28;20770;-78
2021/04/02 00:38:01;;;;;;;13.20;3.60;;;11.60;75.20;;;;;;5067658;28;20780;-76
2021/04/02 00:40:31;;;;;;;13.63;3.47;;;11.50;75.20;;;;;;5063334;28;20431;-76
2021/04/02 00:42:58;;;;;;;13.38;3.30;;;11.60;75.60;;;;;;5060463;28;20424;-76
2021/04/02 00:45:25;;;;;;;9.83;3.00;;;11.50;75.70;;;;;;5064829;28;20429;-76
2021/04/02 00:47:53;;;;;;;14.23;3.30;;;11.50;75.70;;;;;;5055013;28;20419;-76
2021/04/02 00:50:23;;;;;;;13.45;3.50;;;11.50;75.70;;;;;;5067627;28;20507;-76
2021/04/02 00:52:50;;;;;;;13.02;3.47;;;11.50;76.00;;;;;;5064894;28;20413;-76
2021/04/02 00:55:17;;;;;;;12.23;3.63;;;11.40;76.00;;;;;;5058290;28;20407;-76
2021/04/02 00:57:43;;;;;;;12.55;3.17;;;11.40;76.10;;;;;;5042304;28;20418;-76
2021/04/02 01:00:12;;;;;;;13.15;3.65;;;11.40;76.30;;;;;;5062732;28;20906;-76
2021/04/02 01:02:41;;;;;;;13.63;3.35;;;11.40;76.30;;;;;;5064224;28;20937;-76
2021/04/02 01:05:11;;;;;;;13.85;3.63;;;11.40;76.40;;;;;;5057078;28;20761;-76
2021/04/02 01:07:37;;;;;;;13.13;3.45;;;11.40;76.60;;;;;;5061774;28;20434;-76
2021/04/02 01:10:08;;;;;;;10.63;3.50;;;11.40;76.60;;;;;;5060623;28;21229;-76
2021/04/02 01:12:35;;;;;;;11.88;3.30;;;11.30;76.70;;;;;;5063115;28;20455;-76
2021/04/02 01:15:04;;;;;;;12.43;3.33;;;11.30;76.80;;;;;;5068497;28;20415;-76
2021/04/02 01:17:31;;;;;;;13.13;3.30;;;11.30;76.90;;;;;;5058188;28;20738;-76
2021/04/02 01:19:59;;;;;;;13.68;3.60;;;11.30;77.10;;;;;;5044466;28;20419;-77
2021/04/02 01:22:29;;;;;;;11.18;3.40;;;11.20;77.00;;;;;;5059062;28;20994;-76
2021/04/02 01:25:08;;;;;;;10.57;3.50;;;11.20;77.30;;;;;;5059205;28;20763;-76
2021/04/02 01:27:53;;;;;;;12.80;3.30;;;11.20;77.40;;;;;;5058692;28;21260;-75
2021/04/02 01:30:22;;;;;;;14.52;3.50;;;11.10;77.50;;;;;;5062717;28;20545;-76
2021/04/02 01:32:52;;;;;;;13.60;3.50;;;11.10;77.70;;;;;;5060004;28;20407;-76
2021/04/02 01:35:33;;;;;;;12.07;3.30;;;11.10;77.80;;;;;;5064577;28;20415;-75
2021/04/02 01:38:05;;;;;;;14.63;3.75;;;11.10;78.00;;;;;;5061745;28;20411;-75
2021/04/02 01:40:36;;;;;;;14.98;3.55;;;11.10;78.10;;;;;;5059561;28;20415;-76
2021/04/02 01:43:09;;;;;;;12.07;3.50;;;11.00;78.00;;;;;;5059242;28;20475;-76
2021/04/02 01:45:40;;;;;;;14.75;3.83;;;11.00;78.10;;;;;;5054407;28;20408;-75
2021/04/02 01:48:08;;;;;;;14.57;3.45;;;11.00;78.20;;;;;;5062517;28;20935;-76
2021/04/02 01:50:38;;;;;;;16.55;3.75;;;11.00;78.20;;;;;;5058381;28;20504;-75
2021/04/02 01:53:07;;;;;;;11.98;3.42;;;11.00;78.30;;;;;;5039353;28;20476;-75
2021/04/02 01:55:35;;;;;;;12.15;3.20;;;10.90;78.30;;;;;;5054993;28;20763;-76
2021/04/02 01:58:02;;;;;;;16.20;4.15;;;10.90;78.40;;;;;;5040263;28;20494;-76
2021/04/02 02:00:37;;;;;;;11.30;3.30;;;10.90;78.70;;;;;;5041227;28;20448;-76
2021/04/02 02:03:05;;;;;;;14.05;3.70;;;10.90;78.60;;;;;;5042228;28;20429;-76
2021/04/02 02:05:34;;;;;;;10.57;2.90;;;10.90;78.70;;;;;;5061212;28;20853;-76
2021/04/02 02:08:12;;;;;;;11.35;3.15;;;10.80;78.60;;;;;;5044362;28;20516;-76
2021/04/02 02:10:45;;;;;;;13.00;2.95;;;10.80;78.60;;;;;;5043218;28;20597;-75
2021/04/02 02:13:13;;;;;;;13.02;2.90;;;10.80;78.70;;;;;;5056556;28;20550;-76
2021/04/02 02:15:52;;;;;;;11.82;3.13;;;10.80;78.70;;;;;;5046323;28;20418;-75
2021/04/02 02:18:23;;;;;;;10.27;3.08;;;10.80;78.70;;;;;;5048091;28;20804;-77
2021/04/02 02:20:53;;;;;;;13.20;3.08;;;10.80;78.90;;;;;;5044446;28;20452;-75
2021/04/02 02:23:22;;;;;;;13.40;3.20;;;10.70;78.90;;;;;;5057235;28;20904;-76
2021/04/02 02:25:50;;;;;;;13.23;3.10;;;10.70;79.00;;;;;;5046679;28;20965;-75
2021/04/02 02:28:18;;;;;;;11.85;3.35;;;10.70;79.10;;;;;;5047679;28;20774;-76
2021/04/02 02:30:47;;;;;;;13.40;3.20;;;10.70;79.20;;;;;;5045695;28;20413;-75
2021/04/02 02:33:37;;;;;;;14.10;3.07;;;10.70;79.20;;;;;;5059702;28;20838;-76
2021/04/02 02:36:13;;;;;;;11.40;3.15;;;10.60;79.10;;;;;;5043729;28;21212;-76
2021/04/02 02:38:42;;;;;;;12.10;3.25;;;10.60;79.10;;;;;;5066259;28;20967;-77
2021/04/02 02:41:09;;;;;;;13.43;3.40;;;10.60;79.20;;;;;;5044892;28;20791;-76
2021/04/02 02:43:38;;;;;;;13.93;3.03;;;10.60;79.10;;;;;;5045980;28;20464;-75
2021/04/02 02:46:05;;;;;;;14.77;3.15;;;10.60;79.20;;;;;;5044968;28;20476;-76
2021/04/02 02:48:32;;;;;;;11.55;3.10;;;10.50;79.30;;;;;;5054982;28;20489;-76
2021/04/02 02:51:01;;;;;;;11.27;2.95;;;10.50;79.30;;;;;;5066284;28;20930;-75
2021/04/02 02:53:32;;;;;;;13.73;3.13;;;10.50;79.40;;;;;;5054769;28;20948;-75
2021/04/02 02:56:04;;;;;;;12.82;3.20;;;10.50;79.50;;;;;;5043500;28;20929;-75
2021/04/02 02:58:37;;;;;;;11.52;3.15;;;10.50;79.30;;;;;;5048034;28;20936;-75
2021/04/02 03:01:06;;;;;;;14.88;3.17;;;10.50;79.40;;;;;;5056912;28;20405;-74
2021/04/02 03:03:34;;;;;;;11.05;2.60;;;10.50;79.40;;;;;;5063754;28;20416;-76
2021/04/02 03:06:08;;;;;;;12.70;2.80;;;10.50;79.40;;;;;;5062702;28;20455;-75
2021/04/02 03:08:44;;;;;;;10.57;2.80;;;10.50;79.40;;;;;;5039828;28;20991;-77
2021/04/02 03:11:15;;;;;;;13.32;2.90;;;10.40;79.40;;;;;;5046530;28;20506;-74
2021/04/02 03:13:43;;;;;;;13.15;2.60;;;10.40;79.40;;;;;;5059821;28;20441;-74
2021/04/02 03:16:14;;;;;;;13.13;3.27;;;10.40;79.40;;;;;;5046390;28;20417;-76
2021/04/02 03:18:44;;;;;;;12.65;3.25;;;10.40;79.60;;;;;;5044103;28;20844;-76
2021/04/02 03:21:15;;;;;;;9.88;2.58;;;10.40;79.50;;;;;;5043128;28;20477;-77
2021/04/02 03:23:45;;;;;;;10.07;2.50;;;10.40;79.50;;;;;;5042634;28;20436;-75
2021/04/02 03:26:13;;;;;;;16.90;3.00;;;10.40;79.50;;;;;;5040257;28;20475;-76
2021/04/02 03:28:42;;;;;;;13.43;3.40;;;10.40;79.50;;;;;;5043581;28;20419;-75
2021/04/02 03:31:10;;;;;;;13.80;3.40;;;10.30;79.50;;;;;;5041731;28;20513;-76
2021/04/02 03:33:42;;;;;;;10.60;2.90;;;10.30;79.40;;;;;;5059843;28;20409;-75
2021/04/02 03:36:24;;;;;;;11.03;2.70;;;10.30;79.40;;;;;;5041340;28;20431;-76
2021/04/02 03:38:54;;;;;;;18.33;2.80;;;10.30;79.30;;;;;;5043089;28;20536;-75
2021/04/02 03:41:30;;;;;;;12.82;2.83;;;10.30;79.10;;;;;;5058656;28;20428;-74
2021/04/02 03:44:00;;;;;;;15.18;2.85;;;10.20;79.00;;;;;;5044006;28;20560;-75
2021/04/02 03:46:28;;;;;;;11.10;2.53;;;10.20;78.90;;;;;;5045197;28;20426;-74
2021/04/02 03:48:59;;;;;;;11.25;2.42;;;10.20;79.00;;;;;;5059624;28;20423;-76
2021/04/02 03:51:30;;;;;;;12.60;2.50;;;10.20;78.90;;;;;;5041016;28;20424;-74
2021/04/02 03:54:05;;;;;;;17.08;2.58;;;10.20;79.00;;;;;;5044437;28;20432;-75
2021/04/02 03:56:36;;;;;;;15.95;3.33;;;10.20;79.00;;;;;;5042659;28;20417;-75
2021/04/02 03:59:07;;;;;;;14.90;2.70;;;10.10;78.90;;;;;;5043793;28;20822;-75
2021/04/02 04:01:42;;;;;;;11.50;2.65;;;10.10;78.80;;;;;;5042461;28;20501;-76
2021/04/02 04:04:09;;;;;;;12.13;2.40;;;10.20;78.90;;;;;;5044178;28;20418;-75
2021/04/02 04:06:43;;;;;;;13.37;2.70;;;10.10;78.80;;;;;;5042544;28;20429;-76
2021/04/02 04:09:14;;;;;;;13.57;2.50;;;10.10;78.80;;;;;;5059557;28;20504;-76
2021/04/02 04:11:45;;;;;;;11.65;2.40;;;10.10;78.80;;;;;;5064439;28;20467;-74
2021/04/02 04:14:17;;;;;;;12.18;2.50;;;10.10;78.60;;;;;;5046194;28;20415;-76
2021/04/02 04:16:48;;;;;;;14.48;2.90;;;10.10;78.60;;;;;;5040604;28;20614;-75
2021/04/02 04:19:18;;;;;;;12.82;2.78;;;10.20;78.60;;;;;;5049000;28;20427;-75
2021/04/02 04:21:52;;;;;;;14.60;2.50;;;10.10;78.50;;;;;;5058908;28;20420;-75
2021/04/02 04:24:25;;;;;;;14.15;2.88;;;10.20;78.50;;;;;;5045415;28;20428;-76
2021/04/02 04:26:55;;;;;;;14.73;2.43;;;10.20;78.50;;;;;;5061231;28;20422;-75
2021/04/02 04:29:24;;;;;;;15.00;2.60;;;10.20;78.50;;;;;;5061007;28;20413;-75
2021/04/02 04:31:52;;;;;;;14.65;2.70;;;10.10;78.30;;;;;;5061726;28;20436;-76
2021/04/02 04:34:20;;;;;;;11.63;2.60;;;10.20;78.20;;;;;;5042959;28;20440;-75
2021/04/02 04:36:48;;;;;;;11.63;2.60;;;10.30;78.10;;;;;;5062139;28;20926;-76
2021/04/02 04:39:16;;;;;;;11.23;2.40;;;10.30;78.00;;;;;;5057274;28;20914;-75
2021/04/02 04:41:44;;;;;;;11.80;2.42;;;10.30;77.90;;;;;;5038949;28;20416;-75
2021/04/02 04:44:12;;;;;;;13.93;2.60;;;10.30;77.90;;;;;;5058272;28;20419;-76
2021/04/02 04:46:39;;;;;;;12.40;2.30;;;10.30;77.90;;;;;;5057963;28;20416;-76
2021/04/02 04:49:05;;;;;;;13.15;2.67;;;10.30;77.80;;;;;;5059637;28;20436;-76
2021/04/02 04:51:35;;;;;;;11.68;2.35;;;10.20;77.70;;;;;;5045426;28;20438;-77
2021/04/02 04:54:03;;;;;;;13.07;2.50;;;10.30;77.90;;;;;;5038130;28;20413;-76
2021/04/02 04:56:32;;;;;;;11.70;2.40;;;10.30;78.10;;;;;;5062723;28;20514;-75
2021/04/02 04:59:03;;;;;;;16.07;2.70;;;10.30;78.00;;;;;;5067381;28;20414;-75
2021/04/02 05:01:34;;;;;;;15.48;2.70;;;10.30;78.00;;;;;;5059862;28;20748;-75
2021/04/02 05:04:02;;;;;;;12.40;3.00;;;10.30;77.90;;;;;;5062719;28;20413;-77
2021/04/02 05:06:30;;;;;;;12.05;2.60;;;10.30;77.70;;;;;;5061989;28;20871;-75
2021/04/02 05:08:59;;;;;;;10.45;2.38;;;10.30;77.70;;;;;;5056628;28;20440;-76
2021/04/02 05:11:28;;;;;;;12.70;2.70;;;10.30;77.70;;;;;;5059518;28;20423;-76
2021/04/02 05:13:57;;;;;;;11.35;2.60;;;10.30;77.60;;;;;;5061788;28;20427;-75
2021/04/02 05:16:24;;;;;;;14.73;2.88;;;10.40;77.60;;;;;;5056134;28;20416;-75
2021/04/02 05:18:52;;;;;;;12.55;2.90;;;10.30;77.50;;;;;;5056085;28;20409;-75
2021/04/02 05:21:18;;;;;;;15.02;3.10;;;10.30;77.60;;;;;;5043353;28;20915;-78
2021/04/02 05:23:45;;;;;;;11.85;2.90;;;10.30;77.50;;;;;;5062837;28;20430;-75
2021/04/02 05:26:14;;;;;;;14.82;2.75;;;10.30;77.50;;;;;;5057376;28;20783;-74
2021/04/02 05:28:41;;;;;;;12.40;2.85;;;10.30;77.30;;;;;;5044919;28;20485;-75
2021/04/02 05:31:09;;;;;;;11.25;2.58;;;10.30;77.50;;;;;;5042989;28;20419;-75
2021/04/02 05:33:36;;;;;;;10.43;2.47;;;10.30;77.30;;;;;;5056225;28;20409;-75
2021/04/02 05:36:03;;;;;;;12.07;2.70;;;10.40;77.20;;;;;;5041895;28;20420;-76
2021/04/02 05:38:29;;;;;;;10.02;2.58;;;10.40;77.10;;;;;;5057067;28;20399;-77
2021/04/02 05:41:00;;;;;;;11.13;2.83;;;10.40;77.00;;;;;;5047009;28;20430;-76
2021/04/02 05:43:33;;;;;;;14.02;3.28;;;10.40;76.90;;;;;;5060982;28;20420;-78
2021/04/02 05:46:01;;;;;;;12.88;3.45;;;10.40;76.90;;;;;;5057771;28;20912;-76
2021/04/02 05:48:32;;;;;;;15.00;2.90;;;10.40;77.00;;;;;;5060111;28;20948;-75
2021/04/02 05:50:59;;;;;;;19.08;3.03;;;10.40;76.50;;;;;;5056734;28;20444;-76
2021/04/02 05:53:28;;;;;;;13.32;3.00;;;10.40;76.60;;;;;;5064953;28;20422;-74
2021/04/02 05:55:56;;;;;;;19.93;3.20;;;10.40;76.60;;;;;;5062374;28;20407;-75
2021/04/02 05:58:24;;;;;;;12.27;2.75;;;10.40;76.30;;;;;;5063919;28;20430;-77
2021/04/02 06:00:51;;;;;;;11.05;3.20;;;10.40;76.10;;;;;;5065691;28;21170;-80
2021/04/02 06:03:18;;;;;;;19.38;3.47;;;10.40;76.30;;;;;;5062055;28;20887;-76
2021/04/02 06:05:45;;;;;;;10.20;2.90;;;10.40;76.10;;;;;;5067384;28;20420;-75
2021/04/02 06:08:12;;;;;;;14.52;3.13;;;10.40;75.60;;;;;;5046766;28;20468;-78
2021/04/02 06:10:39;;;;;;;13.57;3.03;;;10.40;75.10;;;;;;5046796;28;20536;-77
2021/04/02 06:13:05;;;;;;;11.75;3.13;;;10.40;75.00;;;;;;5061206;28;20469;-76
2021/04/02 06:15:33;;;;;;;13.07;3.03;;;10.40;74.60;;;;;;5064509;28;20443;-77
2021/04/02 06:18:05;;;;;;;10.77;3.10;;;10.40;74.30;;;;;;5065138;28;20412;-76
2021/04/02 06:20:34;;;;;;;11.40;2.75;;;10.40;73.20;;;;;;5062757;28;20465;-75
2021/04/02 06:23:12;;;;;;;10.97;2.57;;;10.30;73.10;;;;;;5059525;28;20413;-76
2021/04/02 06:25:46;;;;;;;12.82;2.50;;;10.30;73.00;;;;;;5066051;28;20427;-77
2021/04/02 06:28:13;;;;;;;14.03;2.30;;;10.40;72.90;;;;;;5043398;28;20429;-75
2021/04/02 06:30:42;;;;;;;12.60;2.10;;;10.40;72.50;;;;;;5041083;28;20916;-75
2021/04/02 06:33:10;;;;;;;12.60;2.13;;;10.40;71.90;;;;;;5057546;28;20817;-74
2021/04/02 06:35:40;;;;;;;10.32;2.00;;;10.40;71.50;;;;;;5055392;28;20450;-76
2021/04/02 06:38:08;;;;;;;12.63;2.10;;;10.50;70.90;;;;;;5042458;28;20432;-76
2021/04/02 06:40:34;;;;;;;12.32;2.30;;;10.50;70.40;;;;;;5043167;28;20450;-75
2021/04/02 06:43:02;;;;;;;9.32;2.20;;;10.40;70.30;;;;;;5056390;28;20432;-75
2021/04/02 06:45:29;;;;;;;13.85;2.78;;;10.40;70.60;;;;;;5060318;28;20572;-76
2021/04/02 06:48:12;;;;;;;11.55;2.40;;;10.50;70.60;;;;;;5058856;28;20423;-74
2021/04/02 06:50:39;;;;;;;13.20;2.50;;;10.50;71.00;;;;;;5060829;28;20486;-75
2021/04/02 06:53:06;;;;;;;11.57;2.92;;;10.50;70.90;;;;;;5057466;28;20413;-75
2021/04/02 06:55:34;;;;;;;8.48;2.40;;;10.50;71.00;;;;;;5059744;28;20433;-75
2021/04/02 06:58:06;;;;;;;10.50;2.17;;;10.50;71.40;;;;;;5056425;28;20429;-75
2021/04/02 07:00:37;;;;;;;10.80;2.50;;;10.50;71.70;;;;;;5058357;28;20521;-75
2021/04/02 07:03:06;;;;;;;13.50;2.60;;;10.50;71.80;;;;;;5058318;28;20427;-75
2021/04/02 07:05:34;;;;;;;12.05;2.53;;;10.50;72.10;;;;;;5059163;28;20419;-74
2021/04/02 07:08:04;;;;;;;17.48;3.17;;;10.50;72.40;;;;;;5055174;28;20520;-76
2021/04/02 07:10:31;;;;;;;12.82;3.17;;;10.60;72.50;;;;;;5062109;28;20912;-74
2021/04/02 07:13:02;;;;;;;12.95;3.20;;;10.60;72.50;;;;;;5062266;28;20863;-74
2021/04/02 07:15:31;;;;;;;10.18;3.05;;;10.60;72.40;;;;;;5058223;28;20554;-75
2021/04/02 07:17:59;;;;;;;11.30;3.15;;;10.70;71.30;;;;;;5059246;28;20421;-75
2021/04/02 07:20:26;;;;;;;10.50;2.53;;;10.70;71.10;;;;;;5041859;28;20427;-75
2021/04/02 07:22:53;;;;;;;11.48;2.35;;;10.70;70.70;;;;;;5059005;28;20427;-77
2021/04/02 07:25:21;;;;;;;12.10;2.50;;;10.70;70.80;;;;;;5057432;28;20421;-75
2021/04/02 07:27:48;;;;;;;12.80;2.70;;;10.70;70.60;;;;;;5055750;28;20917;-76
2021/04/02 07:30:17;;;;;;;16.02;3.20;;;10.70;70.60;;;;;;5061941;28;20473;-76
2021/04/02 07:32:44;;;;;;;15.23;2.75;;;10.70;70.70;;;;;;5057542;28;20425;-75
2021/04/02 07:35:17;;;;;;;11.03;2.87;;;10.70;69.80;;;;;;5059339;28;20432;-76
2021/04/02 07:37:47;;;;;;;10.40;2.53;;;10.70;70.00;;;;;;5059748;28;20429;-75
2021/04/02 07:40:15;;;;;;;13.90;3.00;;;10.60;69.80;;;;;;5044034;28;20438;-74
2021/04/02 07:42:48;;;;;;;15.75;2.88;;;10.60;70.30;;;;;;5058611;28;20442;-76
2021/04/02 07:45:19;;;;;;;11.57;2.28;;;10.60;70.20;;;;;;5063543;28;20430;-75
2021/04/02 07:47:54;;;;;;;11.73;2.10;;;10.50;69.50;;;;;;5061343;28;20438;-76
2021/04/02 07:50:46;;;;;;;15.45;2.63;;;10.50;69.10;;;;;;5060000;28;20423;-75
2021/04/02 07:53:20;;;;;;;13.80;2.60;;;10.50;69.20;;;;;;5045526;28;20919;-76
2021/04/02 07:55:54;;;;;;;13.98;2.30;;;10.50;69.40;;;;;;5058202;28;20536;-74
2021/04/02 07:58:24;;;;;;;17.27;2.35;;;10.50;69.00;;;;;;5042742;28;20416;-75
2021/04/02 08:00:54;;;;;;;9.73;2.17;;;10.50;70.10;;;;;;5055659;28;20902;-76
2021/04/02 08:03:23;;;;;;;14.05;2.70;;;10.50;69.80;;;;;;5059710;28;20514;-75
2021/04/02 08:06:03;;;;;;;13.18;2.75;;;10.50;70.70;;;;;;5059974;28;20438;-76
2021/04/02 08:08:40;;;;;;;14.10;2.40;;;10.60;70.60;;;;;;5055879;28;21072;-74
2021/04/02 08:11:10;;;;;;;13.68;2.33;;;10.70;70.10;;;;;;5055782;28;20433;-75
2021/04/02 08:13:54;;;;;;;10.30;2.20;;;10.70;69.80;;;;;;5038124;28;20576;-76
2021/04/02 08:16:43;;;;;;;13.65;2.50;;;10.70;70.00;;;;;;5055717;28;20503;-74
2021/04/02 08:19:11;;;;;;;15.68;2.70;;;10.70;70.20;;;;;;5048300;28;20479;-76
2021/04/02 08:21:43;;;;;;;12.57;2.60;;;10.80;69.50;;;;;;5058902;28;20431;-75
2021/04/02 08:24:11;;;;;;;11.38;2.60;;;10.80;69.20;;;;;;5052898;28;20893;-76
2021/04/02 08:26:39;;;;;;;11.40;2.53;;;10.80;68.70;;;;;;5061491;28;20779;-77
2021/04/02 08:29:07;;;;;;;13.82;2.15;;;10.80;68.50;;;;;;5042311;28;20423;-74
2021/04/02 08:31:35;;;;;;;15.40;2.60;;;10.90;68.60;;;;;;5060438;28;20435;-75
2021/04/02 08:34:02;;;;;;;15.02;2.55;;;10.90;68.70;;;;;;5037779;28;576412;-75
2021/04/02 08:36:29;;;;;;;14.60;2.63;;;10.90;68.50;;;;;;5067065;28;20424;-77
2021/04/02 08:38:56;;;;;;;12.52;2.40;;;10.80;68.40;;;;;;5059049;28;20467;-76
2021/04/02 08:41:26;;;;;;;14.20;2.65;;;10.90;68.70;;;;;;5059725;28;20900;-76
2021/04/02 08:43:54;;;;;;;16.42;3.03;;;10.80;68.90;;;;;;5043362;28;20419;-75
2021/04/02 08:46:34;;;;;;;13.68;2.50;;;10.80;69.60;;;;;;5059437;28;20448;-75
2021/04/02 08:49:00;;;;;;;11.93;2.50;;;10.90;67.20;;;;;;5050811;28;20460;-76
2021/04/02 08:51:28;;;;;;;9.98;2.00;;;10.90;66.30;;;;;;5057187;28;20431;-76
2021/04/02 08:53:54;;;;;;;11.70;2.15;;;10.90;66.30;;;;;;5058664;28;20784;-76
2021/04/02 08:56:22;;;;;;;11.82;2.50;;;11.00;66.50;;;;;;5059366;28;20431;-75
2021/04/02 08:58:50;;;;;;;12.95;2.78;;;11.00;66.30;;;;;;5053735;28;20949;-75
2021/04/02 09:01:17;;;;;;;12.70;2.30;;;11.00;66.40;;;;;;5055363;28;20508;-75
2021/04/02 09:03:45;;;;;;;10.45;2.25;;;11.00;66.60;;;;;;5056916;28;20415;-75
2021/04/02 09:06:12;;;;;;;12.45;2.30;;;11.00;67.00;;;;;;5041256;28;20431;-75
2021/04/02 09:08:40;;;;;;;13.60;2.50;;;11.10;67.00;;;;;;5059699;28;20438;-75
2021/04/02 09:11:10;;;;;;;11.30;2.10;;;11.10;66.80;;;;;;5063844;28;20427;-75
2021/04/02 09:13:38;;;;;;;11.07;2.55;;;11.10;66.60;;;;;;5043951;28;20465;-76
2021/04/02 09:16:06;;;;;;;12.95;2.17;;;11.10;66.80;;;;;;5058279;28;20457;-75
2021/04/02 09:18:32;;;;;;;11.30;1.98;;;11.10;66.40;;;;;;5035648;28;20435;-76
2021/04/02 09:21:00;;;;;;;12.77;2.17;;;11.20;66.10;;;;;;5054006;28;20429;-76
2021/04/02 09:23:27;;;;;;;12.50;1.88;;;11.20;66.10;;;;;;5057189;28;20431;-75
2021/04/02 09:25:55;;;;;;;14.18;2.00;;;11.20;65.90;;;;;;5059846;28;20431;-75
2021/04/02 09:28:23;;;;;;;11.05;1.80;;;11.30;66.20;;;;;;5055063;28;20910;-76
2021/04/02 09:30:49;;;;;;;9.55;2.30;;;11.30;66.30;;;;;;5057407;28;20419;-76
2021/04/02 09:33:20;;;;;;;17.77;2.85;;;11.30;66.30;;;;;;5060822;28;20415;-75
2021/04/02 09:35:47;;;;;;;15.33;2.90;;;11.30;66.40;;;;;;5056649;28;20828;-75
2021/04/02 09:38:14;;;;;;;16.00;2.40;;;11.40;66.90;;;;;;5055186;28;20508;-77
2021/04/02 09:40:44;;;;;;;14.05;2.08;;;11.30;66.60;;;;;;5054952;28;21358;-76
2021/04/02 09:43:11;;;;;;;12.52;1.90;;;11.40;65.90;;;;;;5060730;28;20430;-76
2021/04/02 09:45:38;;;;;;;16.50;2.60;;;11.40;65.30;;;;;;5062226;28;20427;-76
2021/04/02 09:48:19;;;;;;;13.10;2.53;;;11.40;65.20;;;;;;5044385;28;20438;-75
2021/04/02 09:50:47;;;;;;;11.52;2.67;;;11.40;65.40;;;;;;5053929;28;20466;-75
2021/04/02 09:53:14;;;;;;;9.90;2.10;;;11.50;65.40;;;;;;5059474;28;20786;-75
2021/04/02 09:55:41;;;;;;;14.63;2.60;;;11.50;64.80;;;;;;5061154;28;20803;-75
2021/04/02 09:58:07;;;;;;;17.88;3.30;;;11.50;64.30;;;;;;5061652;28;20439;-75
2021/04/02 10:00:34;;;;;;;10.00;2.38;;;11.60;64.20;;;;;;5040790;28;20436;-76
2021/04/02 10:03:00;;;;;;;11.75;2.40;;;11.50;64.80;;;;;;5053960;28;20425;-76
2021/04/02 10:05:27;;;;;;;11.07;2.00;;;11.50;65.50;;;;;;5056952;28;20432;-76
2021/04/02 10:07:53;;;;;;;17.90;3.10;;;11.50;65.40;;;;;;5054964;28;20438;-77
2021/04/02 10:10:20;;;;;;;12.50;2.30;;;11.60;64.60;;;;;;5059831;28;20433;-75
2021/04/02 10:12:46;;;;;;;10.20;2.05;;;11.60;64.30;;;;;;5052852;28;20431;-75
2021/04/02 10:15:14;;;;;;;10.82;2.00;;;11.60;63.50;;;;;;5061785;28;20431;-75
2021/04/02 10:17:41;;;;;;;10.18;2.20;;;11.60;63.80;;;;;;5053200;28;20922;-76
2021/04/02 10:20:09;;;;;;;13.55;2.13;;;11.60;63.80;;;;;;5036287;28;20918;-76
2021/04/02 10:22:36;;;;;;;15.40;2.87;;;11.70;64.00;;;;;;5062648;28;20744;-77
2021/04/02 10:25:03;;;;;;;12.68;3.05;;;11.80;63.90;;;;;;5040771;28;21144;-75
2021/04/02 10:27:29;;;;;;;12.38;2.88;;;11.80;63.90;;;;;;5058604;28;20427;-75
2021/04/02 10:29:55;;;;;;;13.02;3.20;;;11.90;64.20;;;;;;5059267;28;20430;-76
2021/04/02 10:32:22;;;;;;;15.13;2.33;;;12.00;64.20;;;;;;5056504;28;20436;-77
2021/04/02 10:34:49;;;;;;;10.35;2.47;;;12.00;63.50;;;;;;5054216;28;20466;-75
2021/04/02 10:37:15;;;;;;;14.38;2.35;;;12.10;63.70;;;;;;5055549;28;20471;-76
2021/04/02 10:39:42;;;;;;;13.85;2.60;;;12.10;63.80;;;;;;5062641;28;20788;-76
2021/04/02 10:42:08;;;;;;;16.90;3.30;;;12.10;64.00;;;;;;5061855;28;20433;-75
2021/04/02 10:44:35;;;;;;;17.35;3.42;;;12.10;64.30;;;;;;5060029;28;20431;-76
2021/04/02 10:47:01;;;;;;;14.95;3.00;;;12.20;64.60;;;;;;5058834;28;20910;-76
2021/04/02 10:49:27;;;;;;;14.13;2.80;;;12.10;64.60;;;;;;5062154;28;20439;-78
2021/04/02 10:51:55;;;;;;;13.80;2.65;;;12.10;64.80;;;;;;5061810;28;20423;-77
2021/04/02 10:54:21;;;;;;;12.55;3.00;;;12.10;64.80;;;;;;5059875;28;20432;-76
2021/04/02 10:56:47;;;;;;;16.63;3.75;;;12.20;64.60;;;;;;5061801;28;20419;-77
2021/04/02 10:59:14;;;;;;;17.17;3.70;;;12.10;64.20;;;;;;5059212;28;20429;-76
2021/04/02 11:01:40;;;;;;;15.53;2.77;;;12.10;63.80;;;;;;5067059;28;20791;-76
2021/04/02 11:04:07;;;;;;;14.63;2.77;;;12.10;64.30;;;;;;5063251;28;20424;-76
2021/04/02 11:06:33;;;;;;;17.17;2.72;;;12.10;64.70;;;;;;5046852;28;20425;-77
2021/04/02 11:09:00;;;;;;;15.15;2.92;;;12.10;65.00;;;;;;5055811;28;20423;-76
2021/04/02 11:11:26;;;;;;;10.43;2.55;;;12.10;65.50;;;;;;5055762;28;20437;-76
2021/04/02 11:13:53;;;;;;;15.02;3.08;;;12.20;65.30;;;;;;5056360;28;20477;-77
2021/04/02 11:16:19;;;;;;;14.13;2.75;;;12.10;65.00;;;;;;5055468;28;20421;-76
2021/04/02 11:18:46;;;;;;;15.95;2.83;;;12.10;64.70;;;;;;5057865;28;20430;-76
2021/04/02 11:21:13;;;;;;;16.30;2.80;;;12.00;64.80;;;;;;5056199;28;20427;-76
2021/04/02 11:23:40;;;;;;;13.95;2.65;;;12.00;63.50;;;;;;5041174;28;20487;-76
2021/04/02 11:26:07;;;;;;;13.55;2.85;;;12.00;63.30;;;;;;5055985;28;20460;-76
2021/04/02 11:28:34;;;;;;;13.52;2.67;;;12.10;62.60;;;;;;5040271;28;20445;-75
2021/04/02 11:31:00;;;;;;;14.90;2.60;;;12.10;62.80;;;;;;5062120;28;20435;-76
2021/04/02 11:33:26;;;;;;;14.63;2.70;;;12.10;62.90;;;;;;5060532;28;20445;-77
2021/04/02 11:35:53;;;;;;;13.50;2.83;;;12.20;63.40;;;;;;5061820;28;20465;-77
2021/04/02 11:38:19;;;;;;;17.52;3.30;;;12.20;63.60;;;;;;5056222;28;20956;-76
2021/04/02 11:40:45;;;;;;;13.65;3.00;;;12.20;64.20;;;;;;5060483;28;20439;-77
2021/04/02 11:43:13;;;;;;;20.53;3.53;;;12.20;64.90;;;;;;5041100;28;20914;-76
2021/04/02 11:45:39;;;;;;;17.85;3.03;;;12.10;66.10;;;;;;5061973;28;20432;-75
2021/04/02 11:48:06;;;;;;;16.60;2.83;;;12.20;66.80;;;;;;5041055;28;20483;-77
2021/04/02 11:50:33;;;;;;;21.33;3.85;;;12.20;66.70;;;;;;5062105;28;20428;-77
2021/04/02 11:52:59;;;;;;;13.70;2.90;;;12.20;66.90;;;;;;5059588;28;20431;-75
2021/04/02 11:55:25;;;;;;;13.38;2.65;;;12.10;66.10;;;;;;5057866;28;20511;-74
2021/04/02 11:57:52;;;;;;;12.35;2.38;;;12.10;65.90;;;;;;5063029;28;20427;-75
2021/04/02 12:00:21;;;;;;;13.80;2.30;;;12.10;65.00;;;;;;5067130;28;20892;-76
2021/04/02 12:02:48;;;;;;;13.20;3.45;;;12.10;64.70;;;;;;5057952;28;20574;-76
2021/04/02 12:05:15;;;;;;;12.90;3.05;;;12.00;64.40;;;;;;5062601;28;20792;-76
2021/04/02 12:07:42;;;;;;;12.50;2.50;;;12.00;64.30;;;;;;5040581;28;20931;-76
2021/04/02 12:10:09;;;;;;;12.65;2.20;;;12.00;64.40;;;;;;5056253;28;20439;-77
2021/04/02 12:12:36;;;;;;;14.00;2.40;;;12.00;65.00;;;;;;5061137;28;20905;-75
2021/04/02 12:15:03;;;;;;;17.92;3.65;;;12.00;65.50;;;;;;5058277;28;20427;-76
2021/04/02 12:17:30;;;;;;;15.95;4.03;;;11.90;66.00;;;;;;5041391;28;20450;-76
2021/04/02 12:19:57;;;;;;;14.48;2.80;;;12.00;66.50;;;;;;5060317;28;20435;-76
2021/04/02 12:22:23;;;;;;;11.95;2.95;;;11.90;66.70;;;;;;5055335;28;20427;-76
2021/04/02 12:24:49;;;;;;;13.23;2.92;;;12.00;66.60;;;;;;5057200;28;20437;-77
2021/04/02 12:27:16;;;;;;;15.23;3.03;;;12.00;67.80;;;;;;5059117;28;20423;-76
2021/04/02 12:29:42;;;;;;;11.48;2.55;;;12.00;67.30;;;;;;5056195;28;20439;-77
2021/04/02 12:32:09;;;;;;;14.65;2.70;;;11.90;67.70;;;;;;5044179;28;20423;-75
2021/04/02 12:34:36;;;;;;;16.13;2.45;;;12.00;68.30;;;;;;5059751;28;20434;-75
2021/04/02 12:37:03;;;;;;;10.23;2.10;;;12.00;67.80;;;;;;5060209;28;20440;-77
2021/04/02 12:39:29;;;;;;;10.32;2.10;;;11.90;67.70;;;;;;5059521;28;20427;-75
2021/04/02 12:41:56;;;;;;;13.13;2.27;;;11.90;67.20;;;;;;5055306;28;20540;-77
2021/04/02 12:44:22;;;;;;;16.25;2.75;;;11.90;67.20;;;;;;5060458;28;20439;-77
2021/04/02 12:46:48;;;;;;;16.92;2.53;;;11.90;67.70;;;;;;5038604;28;20444;-76